sensor_id;sensor_type;location;lat;lon;timestamp;temperature;humidity
10512;DHT22;5304;48.604;2.096;2022-08-03T00:01:41;20.70;99.90
10512;DHT22;5304;48.604;2.096;2022-08-03T00:04:26;20.60;99.90
10512;DHT22;5304;48.604;2.096;2022-08-03T00:07:11;20.60;99.90
10512;DHT22;5304;48.604;2.096;2022-08-03T00:09:56;20.60;99.90
10512;DHT22;5304;48.604;2.096;2022-08-03T00:12:40;20.70;99.90
10512;DHT22;5304;48.604;2.096;2022-08-03T00:15:24;20.70;99.90
10512;DHT22;5304;48.604;2.096;2022-08-03T00:18:09;20.70;99.90
10512;DHT22;5304;48.604;2.096;2022-08-03T00:20:53;20.60;99.90
10512;DHT22;5304;48.604;2.096;2022-08-03T00:23:38;20.60;99.90
10512;DHT22;5304;48.604;2.096;2022-08-03T00:26:22;20.50;99.90
10512;DHT22;5304;48.604;2.096;2022-08-03T00:29:07;20.40;99.90
10512;DHT22;5304;48.604;2.096;2022-08-03T00:31:51;20.40;99.90
10512;DHT22;5304;48.604;2.096;2022-08-03T00:34:35;20.40;99.90
10512;DHT22;5304;48.604;2.096;2022-08-03T00:37:20;20.50;99.90
10512;DHT22;5304;48.604;2.096;2022-08-03T00:40:04;20.50;99.90
10512;DHT22;5304;48.604;2.096;2022-08-03T00:42:52;20.40;99.90
10512;DHT22;5304;48.604;2.096;2022-08-03T00:45:39;20.30;99.90
10512;DHT22;5304;48.604;2.096;2022-08-03T00:48:24;20.30;99.90
10512;DHT22;5304;48.604;2.096;2022-08-03T00:51:08;20.20;99.90
10512;DHT22;5304;48.604;2.096;2022-08-03T00:53:53;20.20;99.90
10512;DHT22;5304;48.604;2.096;2022-08-03T00:56:37;20.20;99.90
10512;DHT22;5304;48.604;2.096;2022-08-03T00:59:22;20.20;99.90
10512;DHT22;5304;48.604;2.096;2022-08-03T01:02:07;20.20;99.90
10512;DHT22;5304;48.604;2.096;2022-08-03T01:04:51;20.20;99.90
10512;DHT22;5304;48.604;2.096;2022-08-03T01:13:33;20.20;99.90
10512;DHT22;5304;48.604;2.096;2022-08-03T01:16:26;20.10;99.90
10512;DHT22;5304;48.604;2.096;2022-08-03T01:22:15;19.90;99.90
10512;DHT22;5304;48.604;2.096;2022-08-03T01:25:05;19.90;99.90
10512;DHT22;5304;48.604;2.096;2022-08-03T01:30:42;19.80;99.90
10512;DHT22;5304;48.604;2.096;2022-08-03T01:33:35;19.80;99.90
10512;DHT22;5304;48.604;2.096;2022-08-03T01:36:23;19.80;99.90
10512;DHT22;5304;48.604;2.096;2022-08-03T01:39:09;19.80;99.90
10512;DHT22;5304;48.604;2.096;2022-08-03T01:42:00;19.70;99.90
10512;DHT22;5304;48.604;2.096;2022-08-03T01:44:51;19.70;99.90
10512;DHT22;5304;48.604;2.096;2022-08-03T01:47:36;19.70;99.90
10512;DHT22;5304;48.604;2.096;2022-08-03T01:50:23;19.80;99.90
10512;DHT22;5304;48.604;2.096;2022-08-03T01:53:13;19.70;99.90
10512;DHT22;5304;48.604;2.096;2022-08-03T01:55:59;19.70;99.90
10512;DHT22;5304;48.604;2.096;2022-08-03T01:58:47;19.70;99.90
10512;DHT22;5304;48.604;2.096;2022-08-03T02:01:34;19.70;99.90
10512;DHT22;5304;48.604;2.096;2022-08-03T02:04:20;19.50;99.90
10512;DHT22;5304;48.604;2.096;2022-08-03T02:07:07;19.50;99.90
10512;DHT22;5304;48.604;2.096;2022-08-03T02:09:53;19.50;99.90
10512;DHT22;5304;48.604;2.096;2022-08-03T02:12:39;19.50;99.90
10512;DHT22;5304;48.604;2.096;2022-08-03T02:15:27;19.40;99.90
10512;DHT22;5304;48.604;2.096;2022-08-03T02:18:12;19.50;99.90
10512;DHT22;5304;48.604;2.096;2022-08-03T02:21:02;19.40;99.90
10512;DHT22;5304;48.604;2.096;2022-08-03T02:23:47;19.40;99.90
10512;DHT22;5304;48.604;2.096;2022-08-03T02:26:34;19.30;99.90
10512;DHT22;5304;48.604;2.096;2022-08-03T02:29:24;19.30;99.90
10512;DHT22;5304;48.604;2.096;2022-08-03T02:32:13;19.20;99.90
10512;DHT22;5304;48.604;2.096;2022-08-03T02:35:03;19.20;99.90
10512;DHT22;5304;48.604;2.096;2022-08-03T02:37:51;19.20;99.90
10512;DHT22;5304;48.604;2.096;2022-08-03T02:40:37;19.20;99.90
10512;DHT22;5304;48.604;2.096;2022-08-03T02:43:24;19.20;99.90
10512;DHT22;5304;48.604;2.096;2022-08-03T02:46:12;19.20;99.90
10512;DHT22;5304;48.604;2.096;2022-08-03T02:49:00;19.10;99.90
10512;DHT22;5304;48.604;2.096;2022-08-03T02:51:46;19.10;99.90
10512;DHT22;5304;48.604;2.096;2022-08-03T02:54:33;19.10;99.90
10512;DHT22;5304;48.604;2.096;2022-08-03T02:57:19;19.10;99.90
10512;DHT22;5304;48.604;2.096;2022-08-03T03:00:05;19.10;99.90
10512;DHT22;5304;48.604;2.096;2022-08-03T03:02:57;19.00;99.90
10512;DHT22;5304;48.604;2.096;2022-08-03T03:05:43;19.00;99.90
10512;DHT22;5304;48.604;2.096;2022-08-03T03:08:28;19.00;99.90
10512;DHT22;5304;48.604;2.096;2022-08-03T03:11:16;19.00;99.90
10512;DHT22;5304;48.604;2.096;2022-08-03T03:14:01;19.00;99.90
10512;DHT22;5304;48.604;2.096;2022-08-03T03:16:46;19.00;99.90
10512;DHT22;5304;48.604;2.096;2022-08-03T03:19:32;18.90;99.90
10512;DHT22;5304;48.604;2.096;2022-08-03T03:22:17;18.90;99.90
10512;DHT22;5304;48.604;2.096;2022-08-03T03:25:03;18.90;99.90
10512;DHT22;5304;48.604;2.096;2022-08-03T03:27:49;19.10;99.90
10512;DHT22;5304;48.604;2.096;2022-08-03T03:30:34;19.10;99.90
10512;DHT22;5304;48.604;2.096;2022-08-03T03:33:20;19.00;99.90
10512;DHT22;5304;48.604;2.096;2022-08-03T03:36:05;18.90;99.90
10512;DHT22;5304;48.604;2.096;2022-08-03T03:38:50;18.80;99.90
10512;DHT22;5304;48.604;2.096;2022-08-03T03:41:35;18.80;99.90
10512;DHT22;5304;48.604;2.096;2022-08-03T03:44:19;18.70;99.90
10512;DHT22;5304;48.604;2.096;2022-08-03T03:47:04;18.70;99.90
10512;DHT22;5304;48.604;2.096;2022-08-03T03:49:49;18.60;99.90
10512;DHT22;5304;48.604;2.096;2022-08-03T03:52:34;18.60;99.90
10512;DHT22;5304;48.604;2.096;2022-08-03T03:55:19;18.50;99.90
10512;DHT22;5304;48.604;2.096;2022-08-03T03:58:04;18.50;99.90
10512;DHT22;5304;48.604;2.096;2022-08-03T04:00:49;18.50;99.90
10512;DHT22;5304;48.604;2.096;2022-08-03T04:03:34;18.40;99.90
10512;DHT22;5304;48.604;2.096;2022-08-03T04:06:18;18.40;99.90
10512;DHT22;5304;48.604;2.096;2022-08-03T04:09:22;18.40;99.90
10512;DHT22;5304;48.604;2.096;2022-08-03T04:12:27;18.40;99.90
10512;DHT22;5304;48.604;2.096;2022-08-03T04:15:13;18.50;99.90
10512;DHT22;5304;48.604;2.096;2022-08-03T04:17:58;18.50;99.90
10512;DHT22;5304;48.604;2.096;2022-08-03T04:20:46;18.30;99.90
10512;DHT22;5304;48.604;2.096;2022-08-03T04:23:33;18.30;99.90
10512;DHT22;5304;48.604;2.096;2022-08-03T04:26:21;18.20;99.90
10512;DHT22;5304;48.604;2.096;2022-08-03T04:29:08;18.30;99.90
10512;DHT22;5304;48.604;2.096;2022-08-03T04:31:55;18.30;99.90
10512;DHT22;5304;48.604;2.096;2022-08-03T04:34:40;18.20;99.90
10512;DHT22;5304;48.604;2.096;2022-08-03T04:37:39;18.20;99.90
10512;DHT22;5304;48.604;2.096;2022-08-03T04:40:36;18.30;99.90
10512;DHT22;5304;48.604;2.096;2022-08-03T04:43:23;18.20;99.90
10512;DHT22;5304;48.604;2.096;2022-08-03T04:46:09;18.20;99.90
10512;DHT22;5304;48.604;2.096;2022-08-03T04:48:54;18.30;99.90
10512;DHT22;5304;48.604;2.096;2022-08-03T04:51:39;18.20;99.90
10512;DHT22;5304;48.604;2.096;2022-08-03T04:54:23;18.30;99.90
10512;DHT22;5304;48.604;2.096;2022-08-03T04:57:09;18.20;99.90
10512;DHT22;5304;48.604;2.096;2022-08-03T04:59:54;18.30;99.90
10512;DHT22;5304;48.604;2.096;2022-08-03T05:02:39;18.30;99.90
10512;DHT22;5304;48.604;2.096;2022-08-03T05:05:24;18.30;99.90
10512;DHT22;5304;48.604;2.096;2022-08-03T05:08:08;18.20;99.90
10512;DHT22;5304;48.604;2.096;2022-08-03T05:10:53;18.20;99.90
10512;DHT22;5304;48.604;2.096;2022-08-03T05:13:37;18.20;99.90
10512;DHT22;5304;48.604;2.096;2022-08-03T05:16:22;18.30;99.90
10512;DHT22;5304;48.604;2.096;2022-08-03T05:19:08;18.30;99.90
10512;DHT22;5304;48.604;2.096;2022-08-03T05:21:52;18.30;99.90
10512;DHT22;5304;48.604;2.096;2022-08-03T05:24:37;18.40;99.90
10512;DHT22;5304;48.604;2.096;2022-08-03T05:27:22;18.60;99.90
10512;DHT22;5304;48.604;2.096;2022-08-03T05:30:06;18.60;99.90
10512;DHT22;5304;48.604;2.096;2022-08-03T05:32:51;18.60;99.90
10512;DHT22;5304;48.604;2.096;2022-08-03T05:35:36;18.70;99.90
10512;DHT22;5304;48.604;2.096;2022-08-03T05:38:22;18.70;99.90
10512;DHT22;5304;48.604;2.096;2022-08-03T05:41:07;18.80;99.90
10512;DHT22;5304;48.604;2.096;2022-08-03T05:43:53;18.90;99.90
10512;DHT22;5304;48.604;2.096;2022-08-03T05:46:37;18.90;99.90
10512;DHT22;5304;48.604;2.096;2022-08-03T05:49:22;19.00;99.90
10512;DHT22;5304;48.604;2.096;2022-08-03T05:52:06;19.10;99.90
10512;DHT22;5304;48.604;2.096;2022-08-03T05:54:50;19.10;99.90
10512;DHT22;5304;48.604;2.096;2022-08-03T05:57:36;19.20;99.90
10512;DHT22;5304;48.604;2.096;2022-08-03T06:00:20;19.30;99.90
10512;DHT22;5304;48.604;2.096;2022-08-03T06:03:05;19.40;99.90
10512;DHT22;5304;48.604;2.096;2022-08-03T06:05:49;19.60;99.90
10512;DHT22;5304;48.604;2.096;2022-08-03T06:08:34;19.70;99.90
10512;DHT22;5304;48.604;2.096;2022-08-03T06:11:19;19.80;99.90
10512;DHT22;5304;48.604;2.096;2022-08-03T06:14:03;20.00;99.90
10512;DHT22;5304;48.604;2.096;2022-08-03T06:16:48;20.20;99.90
10512;DHT22;5304;48.604;2.096;2022-08-03T06:19:32;20.30;99.90
10512;DHT22;5304;48.604;2.096;2022-08-03T06:22:17;20.50;99.90
10512;DHT22;5304;48.604;2.096;2022-08-03T06:25:02;20.80;99.90
10512;DHT22;5304;48.604;2.096;2022-08-03T06:27:46;21.00;99.90
10512;DHT22;5304;48.604;2.096;2022-08-03T06:30:31;21.30;99.90
10512;DHT22;5304;48.604;2.096;2022-08-03T06:33:15;21.60;99.90
10512;DHT22;5304;48.604;2.096;2022-08-03T06:35:59;22.00;99.90
10512;DHT22;5304;48.604;2.096;2022-08-03T06:38:44;22.30;99.90
10512;DHT22;5304;48.604;2.096;2022-08-03T06:41:28;22.60;99.90
10512;DHT22;5304;48.604;2.096;2022-08-03T06:44:13;22.80;99.90
10512;DHT22;5304;48.604;2.096;2022-08-03T06:46:57;23.00;99.90
10512;DHT22;5304;48.604;2.096;2022-08-03T06:49:42;23.20;99.90
10512;DHT22;5304;48.604;2.096;2022-08-03T06:52:26;23.50;99.90
10512;DHT22;5304;48.604;2.096;2022-08-03T06:55:10;24.20;99.90
10512;DHT22;5304;48.604;2.096;2022-08-03T06:57:55;24.90;99.90
10512;DHT22;5304;48.604;2.096;2022-08-03T07:00:40;25.40;99.90
10512;DHT22;5304;48.604;2.096;2022-08-03T07:03:25;25.50;99.90
10512;DHT22;5304;48.604;2.096;2022-08-03T07:06:09;25.50;99.90
10512;DHT22;5304;48.604;2.096;2022-08-03T07:08:53;25.60;99.90
10512;DHT22;5304;48.604;2.096;2022-08-03T07:11:38;25.80;99.90
10512;DHT22;5304;48.604;2.096;2022-08-03T07:14:22;25.80;99.90
10512;DHT22;5304;48.604;2.096;2022-08-03T07:17:07;25.80;99.90
10512;DHT22;5304;48.604;2.096;2022-08-03T07:19:52;25.80;99.90
10512;DHT22;5304;48.604;2.096;2022-08-03T07:22:36;25.90;99.90
10512;DHT22;5304;48.604;2.096;2022-08-03T07:25:20;26.10;99.90
10512;DHT22;5304;48.604;2.096;2022-08-03T07:28:05;26.20;99.90
10512;DHT22;5304;48.604;2.096;2022-08-03T07:30:49;26.40;99.90
10512;DHT22;5304;48.604;2.096;2022-08-03T07:33:34;26.70;99.90
10512;DHT22;5304;48.604;2.096;2022-08-03T07:36:18;27.10;99.90
10512;DHT22;5304;48.604;2.096;2022-08-03T07:39:03;27.50;99.90
10512;DHT22;5304;48.604;2.096;2022-08-03T07:41:48;27.90;99.90
10512;DHT22;5304;48.604;2.096;2022-08-03T07:44:36;28.30;99.90
10512;DHT22;5304;48.604;2.096;2022-08-03T07:47:24;28.90;99.90
10512;DHT22;5304;48.604;2.096;2022-08-03T07:50:08;29.40;99.90
10512;DHT22;5304;48.604;2.096;2022-08-03T07:52:54;30.00;99.90
10512;DHT22;5304;48.604;2.096;2022-08-03T07:55:39;30.90;99.90
10512;DHT22;5304;48.604;2.096;2022-08-03T07:58:23;32.00;99.90
10512;DHT22;5304;48.604;2.096;2022-08-03T08:01:08;33.30;99.90
10512;DHT22;5304;48.604;2.096;2022-08-03T08:03:52;34.80;99.90
10512;DHT22;5304;48.604;2.096;2022-08-03T08:06:37;36.10;99.90
10512;DHT22;5304;48.604;2.096;2022-08-03T08:09:22;36.70;99.90
10512;DHT22;5304;48.604;2.096;2022-08-03T08:12:06;37.20;99.90
10512;DHT22;5304;48.604;2.096;2022-08-03T08:14:51;37.60;99.90
10512;DHT22;5304;48.604;2.096;2022-08-03T08:17:53;37.80;99.90
10512;DHT22;5304;48.604;2.096;2022-08-03T08:20:37;38.00;99.90
10512;DHT22;5304;48.604;2.096;2022-08-03T08:23:22;38.30;99.90
10512;DHT22;5304;48.604;2.096;2022-08-03T08:26:07;38.40;99.90
10512;DHT22;5304;48.604;2.096;2022-08-03T08:28:51;38.10;99.30
10512;DHT22;5304;48.604;2.096;2022-08-03T08:31:36;38.30;99.40
10512;DHT22;5304;48.604;2.096;2022-08-03T08:34:20;38.20;98.60
10512;DHT22;5304;48.604;2.096;2022-08-03T08:37:04;38.00;98.80
10512;DHT22;5304;48.604;2.096;2022-08-03T08:39:49;37.90;98.70
10512;DHT22;5304;48.604;2.096;2022-08-03T08:42:36;37.90;98.60
10512;DHT22;5304;48.604;2.096;2022-08-03T08:45:21;38.00;98.70
10512;DHT22;5304;48.604;2.096;2022-08-03T08:48:06;37.70;98.50
10512;DHT22;5304;48.604;2.096;2022-08-03T08:50:53;37.50;98.00
10512;DHT22;5304;48.604;2.096;2022-08-03T08:53:40;37.50;98.50
10512;DHT22;5304;48.604;2.096;2022-08-03T08:56:27;36.60;98.70
10512;DHT22;5304;48.604;2.096;2022-08-03T08:59:12;35.90;99.10
10512;DHT22;5304;48.604;2.096;2022-08-03T09:01:57;35.50;98.90
10512;DHT22;5304;48.604;2.096;2022-08-03T09:04:42;34.90;99.50
10512;DHT22;5304;48.604;2.096;2022-08-03T09:07:28;34.60;99.90
10512;DHT22;5304;48.604;2.096;2022-08-03T09:10:15;34.50;99.90
10512;DHT22;5304;48.604;2.096;2022-08-03T09:13:06;34.20;99.90
10512;DHT22;5304;48.604;2.096;2022-08-03T09:16:13;34.00;99.90
10512;DHT22;5304;48.604;2.096;2022-08-03T09:19:13;34.10;99.90
10512;DHT22;5304;48.604;2.096;2022-08-03T09:24:57;34.30;99.90
10512;DHT22;5304;48.604;2.096;2022-08-03T09:27:43;34.30;99.90
10512;DHT22;5304;48.604;2.096;2022-08-03T09:30:28;34.60;99.70
10512;DHT22;5304;48.604;2.096;2022-08-03T09:33:13;34.70;99.90
10512;DHT22;5304;48.604;2.096;2022-08-03T09:36:02;34.70;98.90
10512;DHT22;5304;48.604;2.096;2022-08-03T09:39:00;34.70;99.50
10512;DHT22;5304;48.604;2.096;2022-08-03T09:42:05;34.80;98.80
10512;DHT22;5304;48.604;2.096;2022-08-03T09:44:50;34.60;98.80
10512;DHT22;5304;48.604;2.096;2022-08-03T09:47:35;34.60;98.40
10512;DHT22;5304;48.604;2.096;2022-08-03T09:50:19;34.70;98.40
10512;DHT22;5304;48.604;2.096;2022-08-03T09:53:04;34.70;98.20
10512;DHT22;5304;48.604;2.096;2022-08-03T09:56:00;34.70;98.40
10512;DHT22;5304;48.604;2.096;2022-08-03T09:58:46;34.70;98.60
10512;DHT22;5304;48.604;2.096;2022-08-03T10:01:32;35.10;98.20
10512;DHT22;5304;48.604;2.096;2022-08-03T10:04:17;35.20;98.20
10512;DHT22;5304;48.604;2.096;2022-08-03T10:07:07;35.30;97.40
10512;DHT22;5304;48.604;2.096;2022-08-03T10:10:00;35.50;97.60
10512;DHT22;5304;48.604;2.096;2022-08-03T10:12:45;35.50;96.80
10512;DHT22;5304;48.604;2.096;2022-08-03T10:15:32;35.60;96.70
10512;DHT22;5304;48.604;2.096;2022-08-03T10:18:16;35.50;96.20
10512;DHT22;5304;48.604;2.096;2022-08-03T10:21:07;35.60;96.70
10512;DHT22;5304;48.604;2.096;2022-08-03T10:23:52;35.60;96.50
10512;DHT22;5304;48.604;2.096;2022-08-03T10:26:39;35.70;96.40
10512;DHT22;5304;48.604;2.096;2022-08-03T10:29:27;35.70;96.10
10512;DHT22;5304;48.604;2.096;2022-08-03T10:32:33;35.40;96.20
10512;DHT22;5304;48.604;2.096;2022-08-03T10:35:21;35.40;95.80
10512;DHT22;5304;48.604;2.096;2022-08-03T10:38:15;35.50;96.10
10512;DHT22;5304;48.604;2.096;2022-08-03T10:41:01;35.70;96.00
10512;DHT22;5304;48.604;2.096;2022-08-03T10:43:55;35.80;95.90
10512;DHT22;5304;48.604;2.096;2022-08-03T10:46:42;35.80;95.70
10512;DHT22;5304;48.604;2.096;2022-08-03T10:49:28;36.00;95.90
10512;DHT22;5304;48.604;2.096;2022-08-03T10:52:12;35.90;95.70
10512;DHT22;5304;48.604;2.096;2022-08-03T10:54:57;36.10;95.50
10512;DHT22;5304;48.604;2.096;2022-08-03T10:58:00;36.10;95.80
10512;DHT22;5304;48.604;2.096;2022-08-03T11:00:49;36.40;95.10
10512;DHT22;5304;48.604;2.096;2022-08-03T11:06:38;36.40;95.10
10512;DHT22;5304;48.604;2.096;2022-08-03T11:09:23;36.50;94.80
10512;DHT22;5304;48.604;2.096;2022-08-03T11:12:28;36.20;94.40
10512;DHT22;5304;48.604;2.096;2022-08-03T11:15:12;36.10;94.00
10512;DHT22;5304;48.604;2.096;2022-08-03T11:18:12;36.30;94.50
10512;DHT22;5304;48.604;2.096;2022-08-03T11:20:58;36.40;95.10
10512;DHT22;5304;48.604;2.096;2022-08-03T11:23:47;36.60;94.10
10512;DHT22;5304;48.604;2.096;2022-08-03T11:26:32;36.60;94.10
10512;DHT22;5304;48.604;2.096;2022-08-03T11:29:28;36.60;94.20
10512;DHT22;5304;48.604;2.096;2022-08-03T11:35:33;36.60;94.20
10512;DHT22;5304;48.604;2.096;2022-08-03T11:38:27;36.70;94.20
10512;DHT22;5304;48.604;2.096;2022-08-03T11:41:31;36.60;93.90
10512;DHT22;5304;48.604;2.096;2022-08-03T11:44:38;36.60;93.60
10512;DHT22;5304;48.604;2.096;2022-08-03T11:47:28;36.40;93.60
10512;DHT22;5304;48.604;2.096;2022-08-03T11:50:13;36.40;94.00
10512;DHT22;5304;48.604;2.096;2022-08-03T11:52:57;36.50;93.50
10512;DHT22;5304;48.604;2.096;2022-08-03T11:55:43;36.50;93.70
10512;DHT22;5304;48.604;2.096;2022-08-03T11:58:31;36.60;93.70
10512;DHT22;5304;48.604;2.096;2022-08-03T12:01:17;36.80;93.50
10512;DHT22;5304;48.604;2.096;2022-08-03T12:04:04;36.70;93.60
10512;DHT22;5304;48.604;2.096;2022-08-03T12:06:59;36.80;93.10
10512;DHT22;5304;48.604;2.096;2022-08-03T12:12:57;37.00;93.10
10512;DHT22;5304;48.604;2.096;2022-08-03T12:15:42;37.10;92.60
10512;DHT22;5304;48.604;2.096;2022-08-03T12:18:27;36.90;93.20
10512;DHT22;5304;48.604;2.096;2022-08-03T12:21:12;37.00;92.80
10512;DHT22;5304;48.604;2.096;2022-08-03T12:23:59;37.20;92.60
10512;DHT22;5304;48.604;2.096;2022-08-03T12:26:44;37.30;92.50
10512;DHT22;5304;48.604;2.096;2022-08-03T12:29:29;37.40;92.20
10512;DHT22;5304;48.604;2.096;2022-08-03T12:32:14;37.20;91.80
10512;DHT22;5304;48.604;2.096;2022-08-03T12:34:59;36.90;91.70
10512;DHT22;5304;48.604;2.096;2022-08-03T12:37:47;36.80;92.20
10512;DHT22;5304;48.604;2.096;2022-08-03T12:40:32;36.80;92.60
10512;DHT22;5304;48.604;2.096;2022-08-03T12:43:16;37.00;92.50
10512;DHT22;5304;48.604;2.096;2022-08-03T12:46:15;36.80;91.80
10512;DHT22;5304;48.604;2.096;2022-08-03T12:49:05;36.60;92.50
10512;DHT22;5304;48.604;2.096;2022-08-03T12:54:34;36.40;92.00
10512;DHT22;5304;48.604;2.096;2022-08-03T12:57:19;36.40;91.90
10512;DHT22;5304;48.604;2.096;2022-08-03T13:00:10;36.60;92.10
10512;DHT22;5304;48.604;2.096;2022-08-03T13:03:01;36.60;91.80
10512;DHT22;5304;48.604;2.096;2022-08-03T13:05:47;36.60;91.50
10512;DHT22;5304;48.604;2.096;2022-08-03T13:08:31;36.60;91.70
10512;DHT22;5304;48.604;2.096;2022-08-03T13:11:23;36.80;91.80
10512;DHT22;5304;48.604;2.096;2022-08-03T13:14:08;36.90;91.80
10512;DHT22;5304;48.604;2.096;2022-08-03T13:16:52;37.00;91.90
10512;DHT22;5304;48.604;2.096;2022-08-03T13:19:38;36.90;91.60
10512;DHT22;5304;48.604;2.096;2022-08-03T13:22:25;36.40;91.70
10512;DHT22;5304;48.604;2.096;2022-08-03T13:25:10;36.70;91.60
10512;DHT22;5304;48.604;2.096;2022-08-03T13:27:55;36.80;91.30
10512;DHT22;5304;48.604;2.096;2022-08-03T13:30:39;36.90;91.40
10512;DHT22;5304;48.604;2.096;2022-08-03T13:33:26;37.00;91.50
10512;DHT22;5304;48.604;2.096;2022-08-03T13:36:11;36.60;90.90
10512;DHT22;5304;48.604;2.096;2022-08-03T13:38:55;36.10;91.20
10512;DHT22;5304;48.604;2.096;2022-08-03T13:41:40;35.80;91.20
10512;DHT22;5304;48.604;2.096;2022-08-03T13:44:24;35.60;91.30
10512;DHT22;5304;48.604;2.096;2022-08-03T13:47:09;35.80;90.90
10512;DHT22;5304;48.604;2.096;2022-08-03T13:49:53;36.10;91.30
10512;DHT22;5304;48.604;2.096;2022-08-03T13:52:38;36.40;91.00
10512;DHT22;5304;48.604;2.096;2022-08-03T13:55:22;36.50;90.90
10512;DHT22;5304;48.604;2.096;2022-08-03T13:58:07;36.50;90.80
10512;DHT22;5304;48.604;2.096;2022-08-03T14:00:55;36.60;90.60
10512;DHT22;5304;48.604;2.096;2022-08-03T14:03:39;36.70;90.00
10512;DHT22;5304;48.604;2.096;2022-08-03T14:06:24;36.60;90.40
10512;DHT22;5304;48.604;2.096;2022-08-03T14:09:12;36.60;89.70
10512;DHT22;5304;48.604;2.096;2022-08-03T14:11:57;36.90;90.50
10512;DHT22;5304;48.604;2.096;2022-08-03T14:14:42;37.00;90.00
10512;DHT22;5304;48.604;2.096;2022-08-03T14:17:27;37.00;90.00
10512;DHT22;5304;48.604;2.096;2022-08-03T14:20:11;36.90;89.60
10512;DHT22;5304;48.604;2.096;2022-08-03T14:22:57;36.80;89.00
10512;DHT22;5304;48.604;2.096;2022-08-03T14:25:42;36.70;89.30
10512;DHT22;5304;48.604;2.096;2022-08-03T14:28:26;36.80;89.60
10512;DHT22;5304;48.604;2.096;2022-08-03T14:31:11;36.80;90.30
10512;DHT22;5304;48.604;2.096;2022-08-03T14:33:56;36.90;87.80
10512;DHT22;5304;48.604;2.096;2022-08-03T14:36:40;36.90;89.00
10512;DHT22;5304;48.604;2.096;2022-08-03T14:39:25;36.80;88.90
10512;DHT22;5304;48.604;2.096;2022-08-03T14:42:09;36.60;88.70
10512;DHT22;5304;48.604;2.096;2022-08-03T14:44:54;36.60;89.20
10512;DHT22;5304;48.604;2.096;2022-08-03T14:47:39;36.70;88.10
10512;DHT22;5304;48.604;2.096;2022-08-03T14:50:23;36.90;88.10
10512;DHT22;5304;48.604;2.096;2022-08-03T14:53:08;36.80;87.90
10512;DHT22;5304;48.604;2.096;2022-08-03T14:55:53;36.70;88.10
10512;DHT22;5304;48.604;2.096;2022-08-03T14:58:37;36.40;87.40
10512;DHT22;5304;48.604;2.096;2022-08-03T15:01:22;36.40;88.10
10512;DHT22;5304;48.604;2.096;2022-08-03T15:04:06;36.30;88.30
10512;DHT22;5304;48.604;2.096;2022-08-03T15:06:50;36.30;88.30
10512;DHT22;5304;48.604;2.096;2022-08-03T15:09:35;36.30;88.80
10512;DHT22;5304;48.604;2.096;2022-08-03T15:12:19;36.30;87.90
10512;DHT22;5304;48.604;2.096;2022-08-03T15:15:04;36.30;87.40
10512;DHT22;5304;48.604;2.096;2022-08-03T15:17:49;36.30;88.30
10512;DHT22;5304;48.604;2.096;2022-08-03T15:20:34;36.20;87.90
10512;DHT22;5304;48.604;2.096;2022-08-03T15:23:18;36.20;86.90
10512;DHT22;5304;48.604;2.096;2022-08-03T15:26:03;36.10;87.30
10512;DHT22;5304;48.604;2.096;2022-08-03T15:28:47;36.10;87.40
10512;DHT22;5304;48.604;2.096;2022-08-03T15:31:32;36.10;85.40
10512;DHT22;5304;48.604;2.096;2022-08-03T15:34:17;36.10;86.30
10512;DHT22;5304;48.604;2.096;2022-08-03T15:37:03;36.10;85.90
10512;DHT22;5304;48.604;2.096;2022-08-03T15:39:48;36.20;86.50
10512;DHT22;5304;48.604;2.096;2022-08-03T15:42:33;36.20;85.90
10512;DHT22;5304;48.604;2.096;2022-08-03T15:45:18;36.20;85.70
10512;DHT22;5304;48.604;2.096;2022-08-03T15:48:03;36.20;85.30
10512;DHT22;5304;48.604;2.096;2022-08-03T15:50:48;36.20;85.20
10512;DHT22;5304;48.604;2.096;2022-08-03T15:53:33;36.00;84.60
10512;DHT22;5304;48.604;2.096;2022-08-03T15:56:17;35.90;84.70
10512;DHT22;5304;48.604;2.096;2022-08-03T15:59:01;35.80;85.30
10512;DHT22;5304;48.604;2.096;2022-08-03T16:01:47;35.80;85.30
10512;DHT22;5304;48.604;2.096;2022-08-03T16:04:32;35.80;84.30
10512;DHT22;5304;48.604;2.096;2022-08-03T16:07:17;35.80;84.90
10512;DHT22;5304;48.604;2.096;2022-08-03T16:10:21;35.70;83.90
10512;DHT22;5304;48.604;2.096;2022-08-03T16:13:06;35.60;83.90
10512;DHT22;5304;48.604;2.096;2022-08-03T16:15:51;35.50;85.30
10512;DHT22;5304;48.604;2.096;2022-08-03T16:18:35;35.40;84.70
10512;DHT22;5304;48.604;2.096;2022-08-03T16:21:22;35.40;85.00
10512;DHT22;5304;48.604;2.096;2022-08-03T16:24:06;35.40;85.60
10512;DHT22;5304;48.604;2.096;2022-08-03T16:26:51;35.20;84.80
10512;DHT22;5304;48.604;2.096;2022-08-03T16:29:35;35.10;84.90
10512;DHT22;5304;48.604;2.096;2022-08-03T16:32:20;35.00;85.20
10512;DHT22;5304;48.604;2.096;2022-08-03T16:35:06;34.90;85.20
10512;DHT22;5304;48.604;2.096;2022-08-03T16:37:51;34.90;85.20
10512;DHT22;5304;48.604;2.096;2022-08-03T16:40:35;34.80;86.00
10512;DHT22;5304;48.604;2.096;2022-08-03T16:43:21;34.70;85.60
10512;DHT22;5304;48.604;2.096;2022-08-03T16:46:05;34.60;85.60
10512;DHT22;5304;48.604;2.096;2022-08-03T16:48:50;34.70;85.10
10512;DHT22;5304;48.604;2.096;2022-08-03T16:51:34;34.60;85.70
10512;DHT22;5304;48.604;2.096;2022-08-03T16:54:19;34.50;85.20
10512;DHT22;5304;48.604;2.096;2022-08-03T16:57:04;34.50;85.60
10512;DHT22;5304;48.604;2.096;2022-08-03T16:59:49;34.50;85.40
10512;DHT22;5304;48.604;2.096;2022-08-03T17:02:35;34.50;85.40
10512;DHT22;5304;48.604;2.096;2022-08-03T17:05:19;34.50;85.00
10512;DHT22;5304;48.604;2.096;2022-08-03T17:08:05;34.50;85.40
10512;DHT22;5304;48.604;2.096;2022-08-03T17:10:50;34.50;86.10
10512;DHT22;5304;48.604;2.096;2022-08-03T17:13:34;34.40;85.30
10512;DHT22;5304;48.604;2.096;2022-08-03T17:16:19;34.30;86.40
10512;DHT22;5304;48.604;2.096;2022-08-03T17:19:05;34.30;86.00
10512;DHT22;5304;48.604;2.096;2022-08-03T17:22:19;34.30;84.30
10512;DHT22;5304;48.604;2.096;2022-08-03T17:25:06;34.30;84.00
10512;DHT22;5304;48.604;2.096;2022-08-03T17:27:52;34.10;83.60
10512;DHT22;5304;48.604;2.096;2022-08-03T17:30:36;34.00;84.80
10512;DHT22;5304;48.604;2.096;2022-08-03T17:33:41;34.00;85.20
10512;DHT22;5304;48.604;2.096;2022-08-03T17:36:26;33.90;84.70
10512;DHT22;5304;48.604;2.096;2022-08-03T17:39:15;33.90;85.00
10512;DHT22;5304;48.604;2.096;2022-08-03T17:42:00;33.70;86.10
10512;DHT22;5304;48.604;2.096;2022-08-03T17:44:47;33.70;87.10
10512;DHT22;5304;48.604;2.096;2022-08-03T17:47:33;33.60;86.80
10512;DHT22;5304;48.604;2.096;2022-08-03T17:50:18;33.50;86.70
10512;DHT22;5304;48.604;2.096;2022-08-03T17:53:04;33.40;87.10
10512;DHT22;5304;48.604;2.096;2022-08-03T17:58:57;33.50;86.00
10512;DHT22;5304;48.604;2.096;2022-08-03T18:05:05;33.20;87.10
10512;DHT22;5304;48.604;2.096;2022-08-03T18:07:56;33.00;88.30
10512;DHT22;5304;48.604;2.096;2022-08-03T18:10:40;32.90;89.10
10512;DHT22;5304;48.604;2.096;2022-08-03T18:13:30;32.80;89.20
10512;DHT22;5304;48.604;2.096;2022-08-03T18:16:43;32.60;89.20
10512;DHT22;5304;48.604;2.096;2022-08-03T18:19:28;32.60;88.20
10512;DHT22;5304;48.604;2.096;2022-08-03T18:22:13;32.50;88.70